Time;durP1;ratioP1;P1;durP2;ratioP2;P2;SDS_P1;SDS_P2;PMS_P1;PMS_P2;Temp;Humidity;BMP_temperature;BMP_pressure;BME280_temperature;BME280_humidity;BME280_pressure;Samples;Min_cycle;Max_cycle;Signal;HPM_P1;HPM_P2
2023/03/15 00:01:09;;;;;;;0.40;0.40;;;3.00;99.90;;;;;;5089567;28;20289;-62
2023/03/15 00:03:36;;;;;;;1.80;0.50;;;3.20;99.90;;;;;;5085958;28;20203;-62
2023/03/15 00:06:04;;;;;;;2.20;0.50;;;3.30;99.90;;;;;;5091769;28;20212;-65
2023/03/15 00:08:33;;;;;;;0.73;0.50;;;3.40;99.90;;;;;;5069163;28;20227;-62
2023/03/15 00:11:01;;;;;;;0.63;0.60;;;3.30;99.90;;;;;;5090542;28;20571;-62
2023/03/15 00:13:28;;;;;;;0.50;0.30;;;3.10;99.90;;;;;;5088910;28;20214;-62
2023/03/15 00:15:58;;;;;;;3.57;0.53;;;3.00;99.90;;;;;;5071688;28;20300;-62
2023/03/15 00:18:27;;;;;;;0.47;0.47;;;2.80;99.90;;;;;;5087214;28;20225;-62
2023/03/15 00:20:54;;;;;;;0.40;0.40;;;2.90;99.90;;;;;;5094652;28;20209;-62
2023/03/15 00:23:20;;;;;;;1.63;0.50;;;2.90;99.90;;;;;;5090906;28;20281;-62
2023/03/15 00:25:49;;;;;;;2.00;0.80;;;2.90;99.90;;;;;;5088376;28;20202;-62
2023/03/15 00:28:16;;;;;;;0.93;0.60;;;2.80;99.90;;;;;;5085702;28;21089;-59
2023/03/15 00:30:43;;;;;;;0.60;0.60;;;2.80;99.90;;;;;;5088231;28;20337;-60
2023/03/15 00:33:12;;;;;;;2.47;1.07;;;2.80;99.90;;;;;;5087995;28;20327;-60
2023/03/15 00:35:44;;;;;;;0.80;0.80;;;2.70;99.90;;;;;;5085782;28;20301;-60
2023/03/15 00:38:12;;;;;;;1.63;1.20;;;2.90;99.90;;;;;;5089115;28;20194;-60
2023/03/15 00:40:39;;;;;;;3.53;1.30;;;2.90;99.90;;;;;;5089491;28;20214;-60
2023/03/15 00:43:06;;;;;;;3.83;1.40;;;2.90;99.90;;;;;;5090610;28;20611;-60
2023/03/15 00:45:33;;;;;;;2.17;1.50;;;3.00;99.90;;;;;;5088746;28;20249;-61
2023/03/15 00:48:00;;;;;;;1.60;1.50;;;3.10;99.90;;;;;;5086956;28;20281;-61
2023/03/15 00:50:27;;;;;;;2.23;1.60;;;3.00;99.90;;;;;;5090408;28;20777;-61
2023/03/15 00:52:53;;;;;;;2.60;1.70;;;3.10;99.90;;;;;;5068754;28;20667;-61
2023/03/15 00:55:20;;;;;;;3.37;1.53;;;3.20;99.90;;;;;;5089891;28;20313;-63
2023/03/15 00:57:47;;;;;;;2.53;1.90;;;3.20;99.90;;;;;;5085550;28;20197;-63
2023/03/15 01:00:23;;;;;;;3.30;1.83;;;3.30;99.90;;;;;;5090905;28;20190;-61
2023/03/15 01:02:52;;;;;;;4.57;1.87;;;3.50;99.90;;;;;;5094395;28;20215;-61
2023/03/15 01:05:19;;;;;;;3.10;1.77;;;3.30;99.90;;;;;;5077241;28;20229;-61
2023/03/15 01:07:47;;;;;;;3.60;2.33;;;3.50;99.90;;;;;;5075894;28;20205;-61
2023/03/15 01:10:15;;;;;;;4.10;2.17;;;3.70;99.90;;;;;;5078416;28;20201;-61
2023/03/15 01:12:42;;;;;;;3.53;2.20;;;3.70;99.90;;;;;;5093954;28;20204;-60
2023/03/15 01:15:13;;;;;;;2.43;1.73;;;3.70;99.90;;;;;;5095697;28;20218;-61
2023/03/15 01:17:40;;;;;;;2.97;2.03;;;3.80;99.90;;;;;;5096225;28;20223;-60
2023/03/15 01:20:08;;;;;;;1.77;1.50;;;3.70;99.90;;;;;;5080622;28;20229;-61
2023/03/15 01:22:35;;;;;;;2.63;1.43;;;3.50;99.90;;;;;;5097082;28;20721;-61
2023/03/15 01:25:02;;;;;;;1.50;1.37;;;3.50;99.90;;;;;;5100661;28;20299;-61
2023/03/15 01:27:28;;;;;;;1.57;1.20;;;3.30;99.90;;;;;;5099309;28;20194;-61
2023/03/15 01:29:55;;;;;;;1.80;1.23;;;3.30;99.90;;;;;;5082321;28;20588;-61
2023/03/15 01:32:23;;;;;;;1.63;1.50;;;3.40;99.90;;;;;;5089169;28;20206;-61
2023/03/15 01:34:49;;;;;;;1.50;1.37;;;3.40;99.90;;;;;;5092437;28;20938;-61
2023/03/15 01:37:16;;;;;;;1.30;1.20;;;3.40;99.90;;;;;;5089200;28;20233;-61
2023/03/15 01:39:43;;;;;;;1.70;1.53;;;3.30;99.90;;;;;;5094756;28;20297;-61
2023/03/15 01:42:10;;;;;;;1.57;1.40;;;3.40;99.90;;;;;;5088650;28;20226;-61
2023/03/15 01:44:55;;;;;;;1.90;1.40;;;3.50;99.90;;;;;;5089673;28;20228;-61
2023/03/15 01:47:26;;;;;;;1.77;1.33;;;3.50;99.90;;;;;;5091704;28;20657;-61
2023/03/15 01:50:06;;;;;;;2.63;1.50;;;3.60;99.90;;;;;;5095985;28;20607;-61
2023/03/15 01:52:36;;;;;;;1.83;1.20;;;3.60;99.90;;;;;;5091435;28;20247;-61
2023/03/15 01:55:15;;;;;;;1.30;1.20;;;3.60;1.00;;;;;;5093630;28;20222;-61
2023/03/15 01:57:55;;;;;;;1.90;1.50;;;3.70;1.00;;;;;;5089727;28;20320;-61
2023/03/15 02:00:21;;;;;;;1.73;1.23;;;3.70;1.00;;;;;;5093837;28;20202;-61
2023/03/15 02:03:13;;;;;;;1.60;1.50;;;3.70;1.00;;;;;;5093061;28;20198;-61
2023/03/15 02:05:45;;;;;;;3.17;1.60;;;3.70;1.00;;;;;;5093362;28;20210;-61
2023/03/15 02:08:15;;;;;;;2.40;1.43;;;3.60;1.00;;;;;;5092334;28;20197;-61
2023/03/15 02:10:46;;;;;;;1.77;1.43;;;3.40;1.00;;;;;;5097030;28;20240;-61
2023/03/15 02:13:18;;;;;;;1.97;1.77;;;3.10;99.90;;;;;;5088769;28;20202;-61
2023/03/15 02:15:47;;;;;;;1.50;1.40;;;3.10;99.90;;;;;;5088450;28;20898;-61
2023/03/15 02:18:15;;;;;;;1.40;1.30;;;3.00;99.90;;;;;;5087409;28;20222;-61
2023/03/15 02:21:09;;;;;;;2.60;1.60;;;3.00;99.90;;;;;;5091350;28;21146;-61
2023/03/15 02:23:36;;;;;;;3.67;1.80;;;2.90;99.90;;;;;;5091231;28;20194;-60
2023/03/15 02:26:06;;;;;;;3.03;1.80;;;2.90;99.90;;;;;;5091923;28;20306;-62
2023/03/15 02:28:34;;;;;;;1.40;1.30;;;3.10;99.90;;;;;;5099807;28;20669;-71
2023/03/15 02:31:01;;;;;;;1.70;1.60;;;3.10;99.90;;;;;;5095011;28;20626;-63
2023/03/15 02:33:33;;;;;;;2.27;1.87;;;3.00;99.90;;;;;;5091352;28;20210;-61
2023/03/15 02:36:14;;;;;;;3.33;2.07;;;3.10;99.90;;;;;;5088753;28;20217;-61
2023/03/15 02:38:40;;;;;;;3.40;1.57;;;3.30;99.90;;;;;;5091859;28;20839;-61
2023/03/15 02:41:08;;;;;;;4.00;2.07;;;3.10;99.90;;;;;;5093570;28;20225;-62
2023/03/15 02:43:35;;;;;;;2.43;2.10;;;3.10;99.90;;;;;;5088952;28;20192;-61
2023/03/15 02:46:04;;;;;;;2.27;1.90;;;3.20;99.90;;;;;;5087881;28;20301;-61
2023/03/15 02:48:33;;;;;;;3.10;2.07;;;3.40;99.90;;;;;;5093008;28;20303;-61
2023/03/15 02:51:00;;;;;;;2.90;2.23;;;3.60;99.90;;;;;;5092336;28;21317;-61
2023/03/15 02:53:29;;;;;;;3.37;2.73;;;3.60;99.90;;;;;;5092712;28;20567;-61
2023/03/15 02:55:56;;;;;;;5.17;2.37;;;3.60;99.90;;;;;;5092305;28;20858;-61
2023/03/15 02:58:24;;;;;;;3.20;2.43;;;3.70;99.90;;;;;;5093617;28;20210;-61
2023/03/15 03:00:52;;;;;;;3.30;2.50;;;3.80;99.90;;;;;;5097727;28;20198;-62
2023/03/15 03:03:19;;;;;;;2.83;2.40;;;3.70;99.90;;;;;;5098737;28;20198;-61
2023/03/15 03:05:46;;;;;;;4.37;2.53;;;3.50;99.90;;;;;;5100696;28;20633;-61
2023/03/15 03:08:15;;;;;;;2.97;2.53;;;3.50;99.90;;;;;;5097593;28;20689;-61
2023/03/15 03:10:42;;;;;;;5.43;3.17;;;3.50;99.90;;;;;;5097924;28;20675;-61
2023/03/15 03:13:09;;;;;;;5.07;2.73;;;3.60;99.90;;;;;;5097013;28;20202;-61
2023/03/15 03:15:36;;;;;;;2.80;2.50;;;3.70;99.90;;;;;;5095332;28;20272;-61
2023/03/15 03:18:03;;;;;;;5.20;2.90;;;3.70;99.90;;;;;;5096007;28;20269;-61
2023/03/15 03:20:30;;;;;;;4.00;2.70;;;3.80;99.90;;;;;;5096159;28;20218;-61
2023/03/15 03:22:56;;;;;;;2.93;2.73;;;3.60;99.90;;;;;;5091848;28;20255;-62
2023/03/15 03:25:26;;;;;;;3.83;3.13;;;3.50;99.90;;;;;;5098039;28;20293;-61
2023/03/15 03:31:21;;;;;;;5.60;3.27;;;3.40;99.90;;;;;;5093638;28;20264;-61
2023/03/15 03:33:48;;;;;;;5.07;3.47;;;3.60;99.90;;;;;;5090758;28;20293;-61
2023/03/15 03:36:15;;;;;;;4.03;3.37;;;3.80;99.90;;;;;;5091255;28;20253;-61
2023/03/15 03:38:44;;;;;;;4.50;3.30;;;3.70;99.90;;;;;;5089031;28;20614;-62
2023/03/15 03:41:13;;;;;;;3.90;3.00;;;3.50;99.90;;;;;;5091385;28;20707;-62
2023/03/15 03:43:40;;;;;;;6.83;3.27;;;3.50;99.90;;;;;;5090567;28;20758;-64
2023/03/15 03:46:07;;;;;;;5.07;3.43;;;3.70;99.90;;;;;;5095200;28;20297;-63
2023/03/15 03:48:34;;;;;;;6.00;3.43;;;3.70;99.90;;;;;;5090581;28;20206;-61
2023/03/15 03:51:01;;;;;;;6.30;3.43;;;3.60;99.90;;;;;;5091631;28;20264;-61
2023/03/15 03:53:28;;;;;;;5.40;3.10;;;3.60;99.90;;;;;;5086411;28;20277;-62
2023/03/15 03:55:55;;;;;;;3.03;2.77;;;3.60;99.90;;;;;;5090575;28;20271;-61
2023/03/15 03:58:21;;;;;;;5.77;3.27;;;3.50;99.90;;;;;;5090064;28;20206;-61
2023/03/15 04:00:53;;;;;;;5.10;3.53;;;3.50;99.90;;;;;;5092238;28;20222;-61
2023/03/15 04:03:25;;;;;;;6.10;3.10;;;3.40;99.90;;;;;;5091867;28;20198;-62
2023/03/15 04:05:54;;;;;;;4.97;3.33;;;3.50;99.90;;;;;;5090657;28;20289;-62
2023/03/15 04:08:22;;;;;;;5.60;3.30;;;3.50;99.90;;;;;;5075195;28;20300;-61
2023/03/15 04:10:54;;;;;;;5.13;2.57;;;3.60;99.90;;;;;;5091427;28;20237;-61
2023/03/15 04:13:22;;;;;;;5.33;2.40;;;3.50;99.90;;;;;;5090412;28;20307;-61
2023/03/15 04:15:49;;;;;;;4.50;2.50;;;3.50;99.90;;;;;;5089184;28;20301;-61
2023/03/15 04:18:17;;;;;;;4.30;2.80;;;3.50;99.90;;;;;;5092524;28;20305;-61
2023/03/15 04:20:46;;;;;;;4.83;2.90;;;3.30;99.90;;;;;;5093964;28;20229;-61
2023/03/15 04:23:20;;;;;;;4.67;2.50;;;3.20;99.90;;;;;;5088072;28;20222;-61
2023/03/15 04:25:51;;;;;;;3.20;2.90;;;3.10;99.90;;;;;;5091110;28;20204;-61
2023/03/15 04:28:18;;;;;;;5.83;2.90;;;3.10;99.90;;;;;;5086458;28;20218;-61
2023/03/15 04:30:48;;;;;;;5.03;2.80;;;3.10;99.90;;;;;;5092065;28;20251;-62
2023/03/15 04:33:15;;;;;;;4.80;3.03;;;3.00;99.90;;;;;;5090902;28;20203;-60
2023/03/15 04:35:42;;;;;;;3.40;2.97;;;3.20;99.90;;;;;;5088383;28;20229;-63
2023/03/15 04:38:09;;;;;;;3.53;2.53;;;3.30;99.90;;;;;;5089901;28;20594;-61
2023/03/15 04:40:36;;;;;;;4.37;3.03;;;3.40;99.90;;;;;;5088503;28;20297;-64
2023/03/15 04:43:04;;;;;;;4.63;3.03;;;3.40;99.90;;;;;;5087550;28;20240;-60
2023/03/15 04:45:31;;;;;;;4.77;3.20;;;3.40;99.90;;;;;;5091102;28;20218;-60
2023/03/15 04:48:00;;;;;;;6.63;2.87;;;3.50;99.90;;;;;;5089143;28;20228;-60
2023/03/15 04:50:27;;;;;;;4.80;3.07;;;3.50;99.90;;;;;;5086526;28;20236;-61
2023/03/15 04:52:58;;;;;;;3.67;2.80;;;3.40;99.90;;;;;;5088641;28;20222;-61
2023/03/15 04:55:25;;;;;;;8.97;3.00;;;3.50;99.90;;;;;;5088682;28;20688;-61
2023/03/15 04:57:52;;;;;;;4.43;3.30;;;3.30;99.90;;;;;;5086818;28;20275;-61
2023/03/15 05:00:20;;;;;;;3.73;3.23;;;3.40;99.90;;;;;;5094505;28;20212;-61
2023/03/15 05:02:53;;;;;;;5.03;3.20;;;3.50;99.90;;;;;;5093966;28;20644;-61
2023/03/15 05:05:22;;;;;;;6.63;3.40;;;3.40;99.90;;;;;;5078045;28;20202;-61
2023/03/15 05:07:49;;;;;;;5.53;3.23;;;3.30;99.90;;;;;;5078792;28;20223;-61
2023/03/15 05:10:16;;;;;;;3.87;2.97;;;3.20;99.90;;;;;;5098686;28;20221;-61
2023/03/15 05:12:43;;;;;;;4.53;3.23;;;3.20;99.90;;;;;;5077096;28;20258;-61
2023/03/15 05:15:10;;;;;;;5.20;3.30;;;3.30;99.90;;;;;;5097327;28;20614;-61
2023/03/15 05:17:37;;;;;;;6.77;3.43;;;3.40;99.90;;;;;;5076626;28;20336;-61
2023/03/15 05:20:10;;;;;;;5.17;3.53;;;3.40;99.90;;;;;;5062839;28;20979;-61
2023/03/15 05:22:38;;;;;;;6.20;3.60;;;3.40;99.90;;;;;;5084963;28;20631;-61
2023/03/15 05:25:05;;;;;;;8.30;3.77;;;3.50;99.90;;;;;;5098379;28;20280;-61
2023/03/15 05:27:33;;;;;;;7.93;3.97;;;3.40;99.90;;;;;;5085072;28;20198;-62
2023/03/15 05:30:01;;;;;;;3.67;3.30;;;3.40;99.90;;;;;;5082229;28;20236;-62
2023/03/15 05:32:33;;;;;;;4.40;3.33;;;3.50;99.90;;;;;;5091412;28;20230;-62
2023/03/15 05:35:01;;;;;;;6.83;3.63;;;3.50;99.90;;;;;;5060006;28;20564;-63
2023/03/15 05:37:28;;;;;;;5.57;3.63;;;3.30;99.90;;;;;;5094581;28;20234;-62
2023/03/15 05:39:55;;;;;;;5.00;4.10;;;3.30;99.90;;;;;;5089671;28;20195;-62
2023/03/15 05:42:25;;;;;;;4.60;3.40;;;3.40;99.90;;;;;;5069682;28;20289;-62
2023/03/15 05:44:55;;;;;;;6.20;3.47;;;3.20;99.90;;;;;;5070959;28;20537;-62
2023/03/15 05:47:22;;;;;;;6.13;3.80;;;3.00;99.90;;;;;;5085245;28;20202;-62
2023/03/15 05:49:49;;;;;;;5.97;3.77;;;2.90;99.90;;;;;;5069213;28;20295;-61
2023/03/15 05:52:16;;;;;;;6.77;3.67;;;3.00;99.90;;;;;;5070350;28;20194;-62
2023/03/15 05:54:43;;;;;;;7.13;4.37;;;2.90;99.90;;;;;;5087984;28;20198;-62
2023/03/15 05:57:10;;;;;;;7.00;4.60;;;2.90;99.90;;;;;;5088395;28;20214;-62
2023/03/15 05:59:37;;;;;;;5.17;4.53;;;2.80;99.90;;;;;;5088247;28;20201;-61
2023/03/15 06:02:04;;;;;;;5.77;3.93;;;2.80;99.90;;;;;;5091972;28;20288;-62
2023/03/15 06:04:31;;;;;;;8.30;4.30;;;3.10;99.90;;;;;;5041939;28;20201;-63
2023/03/15 06:06:57;;;;;;;10.77;4.87;;;3.20;99.90;;;;;;5073821;28;20206;-62
2023/03/15 06:09:24;;;;;;;8.00;4.67;;;3.10;99.90;;;;;;5075803;28;20725;-62
2023/03/15 06:11:52;;;;;;;8.23;4.53;;;3.20;99.90;;;;;;5078990;28;20226;-63
2023/03/15 06:14:19;;;;;;;7.47;4.80;;;3.30;99.90;;;;;;5076653;28;20606;-66
2023/03/15 06:16:46;;;;;;;7.90;4.47;;;3.20;99.90;;;;;;5075267;28;20275;-62
2023/03/15 06:19:13;;;;;;;7.87;4.53;;;2.90;99.90;;;;;;5075713;28;20214;-62
2023/03/15 06:21:40;;;;;;;5.90;4.53;;;3.00;99.90;;;;;;5092973;28;20194;-62
2023/03/15 06:24:07;;;;;;;7.87;5.00;;;3.20;99.90;;;;;;5069992;28;20199;-63
2023/03/15 06:26:34;;;;;;;6.50;4.83;;;3.00;99.90;;;;;;5073983;28;20761;-62
2023/03/15 06:29:00;;;;;;;7.27;5.17;;;3.00;99.90;;;;;;5091734;28;20198;-62
2023/03/15 06:31:27;;;;;;;6.60;4.43;;;3.10;99.90;;;;;;5093250;28;20283;-62
2023/03/15 06:33:54;;;;;;;6.33;4.30;;;3.30;99.90;;;;;;5094213;28;20212;-63
2023/03/15 06:36:23;;;;;;;8.20;4.30;;;3.10;99.90;;;;;;5092295;28;20347;-61
2023/03/15 06:38:53;;;;;;;7.23;5.17;;;3.10;99.90;;;;;;5095549;28;20234;-62
2023/03/15 06:41:20;;;;;;;8.63;5.00;;;3.20;99.90;;;;;;5088507;28;20783;-62
2023/03/15 06:43:47;;;;;;;8.00;4.67;;;3.20;99.90;;;;;;5091950;28;20204;-61
2023/03/15 06:46:14;;;;;;;8.37;4.60;;;3.40;99.90;;;;;;5077020;28;20202;-62
2023/03/15 06:48:41;;;;;;;7.33;4.97;;;3.30;99.90;;;;;;5093544;28;20306;-62
2023/03/15 06:51:08;;;;;;;6.83;3.90;;;3.30;99.90;;;;;;5093113;28;20204;-62
2023/03/15 06:53:35;;;;;;;10.43;4.77;;;3.30;99.90;;;;;;5091004;28;20273;-61
2023/03/15 06:56:02;;;;;;;6.23;4.33;;;3.30;99.90;;;;;;5090864;28;20611;-61
2023/03/15 06:58:28;;;;;;;8.30;4.83;;;3.20;99.90;;;;;;5098506;28;20667;-62
2023/03/15 07:00:55;;;;;;;10.63;4.50;;;3.30;99.90;;;;;;5090552;28;20268;-62
2023/03/15 07:03:22;;;;;;;5.60;4.10;;;3.30;99.90;;;;;;5099879;28;20197;-61
2023/03/15 07:05:52;;;;;;;6.77;4.20;;;3.20;99.90;;;;;;5099285;28;20234;-62
2023/03/15 07:08:21;;;;;;;6.53;4.07;;;3.30;99.90;;;;;;5098311;28;20230;-61
2023/03/15 07:10:49;;;;;;;6.27;4.70;;;3.50;99.90;;;;;;5100447;28;20214;-61
2023/03/15 07:13:17;;;;;;;6.47;4.47;;;3.20;99.90;;;;;;5092019;28;20210;-61
2023/03/15 07:15:44;;;;;;;5.73;4.20;;;3.20;99.90;;;;;;5098842;28;20892;-61
2023/03/15 07:18:11;;;;;;;5.90;4.47;;;3.30;99.90;;;;;;5097403;28;20233;-61
2023/03/15 07:20:38;;;;;;;8.07;4.90;;;3.20;99.90;;;;;;5099514;28;20277;-61
2023/03/15 07:23:05;;;;;;;7.07;4.67;;;3.60;99.90;;;;;;5098126;28;20234;-61
2023/03/15 07:25:32;;;;;;;7.23;5.13;;;3.70;99.90;;;;;;5098922;28;20335;-61
2023/03/15 07:28:10;;;;;;;10.27;4.80;;;3.90;99.90;;;;;;5095505;28;20209;-61
2023/03/15 07:30:37;;;;;;;6.80;4.60;;;3.90;99.90;;;;;;5086782;28;20217;-61
2023/03/15 07:33:04;;;;;;;6.53;4.97;;;4.20;99.90;;;;;;5093519;28;21672;-62
2023/03/15 07:35:31;;;;;;;6.80;3.67;;;4.60;99.90;;;;;;5056929;28;20208;-60
2023/03/15 07:37:58;;;;;;;6.97;3.87;;;4.60;99.90;;;;;;5067007;28;20283;-62
2023/03/15 07:40:25;;;;;;;5.93;3.97;;;4.80;99.90;;;;;;5057912;28;20724;-62
2023/03/15 07:42:52;;;;;;;6.80;3.27;;;5.10;99.90;;;;;;5071885;28;21588;-62
2023/03/15 07:45:18;;;;;;;8.43;4.50;;;5.10;1.00;;;;;;4706661;28;9999859;-63
2023/03/15 07:47:45;;;;;;;5.43;3.57;;;5.50;1.00;;;;;;5066067;28;20233;-60
2023/03/15 07:50:12;;;;;;;6.43;3.87;;;5.70;1.00;;;;;;5073029;28;20206;-62
2023/03/15 07:52:42;;;;;;;6.47;2.40;;;6.00;99.90;;;;;;5074517;28;20288;-61
2023/03/15 07:55:09;;;;;;;4.13;2.70;;;6.20;1.00;;;;;;5068669;28;20664;-61
2023/03/15 07:57:36;;;;;;;4.63;3.37;;;6.40;1.00;;;;;;5072895;28;20634;-63
2023/03/15 08:00:04;;;;;;;3.23;2.57;;;6.70;1.00;;;;;;5071718;28;20196;-63
2023/03/15 08:02:31;;;;;;;3.90;2.53;;;6.90;1.00;;;;;;5051729;28;20250;-63
2023/03/15 08:04:58;;;;;;;4.23;2.30;;;7.20;1.00;;;;;;5069756;28;20543;-62
2023/03/15 08:07:25;;;;;;;4.37;1.93;;;7.20;1.00;;;;;;5069969;28;20209;-64
2023/03/15 08:09:52;;;;;;;5.93;2.57;;;7.30;1.00;;;;;;5050361;28;20222;-62
2023/03/15 08:12:18;;;;;;;3.63;1.97;;;7.60;1.00;;;;;;5065473;28;20292;-63
2023/03/15 08:14:45;;;;;;;5.67;1.97;;;7.70;1.00;;;;;;5057444;28;20728;-61
2023/03/15 08:17:15;;;;;;;2.77;1.80;;;8.00;99.90;;;;;;5073153;28;20676;-61
2023/03/15 08:19:42;;;;;;;5.37;1.83;;;8.30;94.30;;;;;;5073429;28;20202;-61
2023/03/15 08:22:09;;;;;;;4.43;1.60;;;8.10;99.90;;;;;;5052446;28;20206;-61
2023/03/15 08:24:36;;;;;;;4.20;1.70;;;8.10;15.60;;;;;;5066426;28;20193;-61
2023/03/15 08:27:03;;;;;;;3.23;1.70;;;7.90;1.00;;;;;;5070844;28;20203;-61
2023/03/15 08:29:30;;;;;;;4.10;1.80;;;8.00;1.00;;;;;;5070903;28;20714;-61
2023/03/15 08:31:57;;;;;;;2.37;1.20;;;8.60;1.00;;;;;;5070195;28;20740;-61
2023/03/15 08:34:24;;;;;;;3.27;1.20;;;9.00;1.00;;;;;;5054413;28;20204;-62
2023/03/15 08:36:51;;;;;;;4.90;1.80;;;9.40;1.00;;;;;;5075398;28;20250;-61
2023/03/15 08:39:18;;;;;;;4.87;1.50;;;9.90;1.00;;;;;;5094553;28;20207;-61
2023/03/15 08:41:46;;;;;;;4.97;1.30;;;10.10;1.00;;;;;;5094071;28;20269;-61
2023/03/15 08:44:13;;;;;;;3.27;1.27;;;10.40;99.90;;;;;;5093126;28;20211;-61
2023/03/15 08:46:40;;;;;;;3.10;1.50;;;10.30;99.90;;;;;;5071628;28;20211;-61
2023/03/15 08:49:06;;;;;;;4.67;1.60;;;9.90;99.90;;;;;;5076717;28;20200;-61
2023/03/15 08:51:33;;;;;;;9.43;1.80;;;9.20;99.90;;;;;;5093490;28;20201;-61
2023/03/15 08:54:03;;;;;;;4.93;2.03;;;9.70;1.00;;;;;;5073636;28;20208;-61
2023/03/15 08:56:31;;;;;;;5.10;1.43;;;10.50;99.90;;;;;;5091515;28;20209;-61
2023/03/15 08:58:58;;;;;;;5.97;1.87;;;10.70;99.90;;;;;;5073208;28;20203;-61
2023/03/15 09:01:24;;;;;;;2.40;1.60;;;10.30;1.00;;;;;;5089278;28;20200;-61
2023/03/15 09:03:51;;;;;;;7.07;1.33;;;10.00;99.90;;;;;;5077483;28;20265;-61
2023/03/15 09:06:18;;;;;;;3.53;1.27;;;9.70;99.90;;;;;;5091371;28;20712;-61
2023/03/15 09:08:45;;;;;;;3.30;1.30;;;10.30;99.90;;;;;;5089109;28;20234;-61
2023/03/15 09:11:12;;;;;;;4.37;1.00;;;10.40;99.90;;;;;;5093583;28;20273;-60
2023/03/15 09:13:39;;;;;;;5.50;1.67;;;11.10;99.90;;;;;;5088719;28;20211;-61
2023/03/15 09:16:06;;;;;;;4.57;1.30;;;10.30;50.70;;;;;;5081313;28;20228;-61
2023/03/15 09:18:33;;;;;;;1.93;1.17;;;9.40;99.90;;;;;;5087908;28;22211;-61
2023/03/15 09:21:00;;;;;;;4.90;1.73;;;9.80;91.00;;;;;;5090522;28;20385;-61
2023/03/15 09:23:27;;;;;;;3.53;1.47;;;9.40;99.90;;;;;;5092256;28;20222;-61
2023/03/15 09:25:54;;;;;;;5.00;1.30;;;9.60;99.90;;;;;;5088719;28;20194;-62
2023/03/15 09:28:21;;;;;;;6.17;2.00;;;9.60;1.00;;;;;;5073025;28;20316;-61
2023/03/15 09:30:47;;;;;;;2.33;1.03;;;9.30;99.90;;;;;;5088159;28;20725;-61
2023/03/15 09:33:14;;;;;;;5.60;1.40;;;10.00;48.80;;;;;;5080395;28;20225;-62
2023/03/15 09:35:41;;;;;;;6.73;1.67;;;9.20;99.90;;;;;;5075771;28;20205;-62
2023/03/15 09:38:09;;;;;;;3.33;1.40;;;10.10;99.90;;;;;;5081249;28;20240;-62
2023/03/15 09:40:44;;;;;;;1.63;1.07;;;11.00;99.90;;;;;;5053994;28;20939;-65
2023/03/15 09:43:16;;;;;;;4.63;1.50;;;10.90;1.00;;;;;;5075091;28;20204;-61
2023/03/15 09:46:09;;;;;;;4.33;1.50;;;10.00;8.90;;;;;;5067427;28;20254;-66
2023/03/15 09:49:20;;;;;;;3.53;1.30;;;10.50;1.00;;;;;;5073422;28;20537;-62
2023/03/15 09:52:02;;;;;;;2.13;1.10;;;10.00;1.00;;;;;;5040416;28;20205;-61
2023/03/15 09:54:47;;;;;;;4.20;1.40;;;9.70;94.20;;;;;;5055614;28;20203;-62
2023/03/15 09:57:20;;;;;;;3.77;1.20;;;9.50;50.80;;;;;;5073294;28;20209;-62
2023/03/15 09:59:51;;;;;;;4.00;1.57;;;9.60;1.00;;;;;;5074064;28;21090;-61
2023/03/15 10:02:28;;;;;;;5.43;1.20;;;10.40;1.00;;;;;;5074688;28;20202;-61
2023/03/15 10:05:05;;;;;;;5.17;1.10;;;10.10;1.00;;;;;;5075296;28;20206;-61
2023/03/15 10:07:32;;;;;;;7.40;1.00;;;10.10;1.00;;;;;;5075577;28;20216;-61
2023/03/15 10:09:59;;;;;;;3.80;0.90;;;10.60;1.00;;;;;;5055377;28;20676;-62
2023/03/15 10:12:32;;;;;;;3.47;1.07;;;11.00;1.00;;;;;;5056178;28;20236;-62
2023/03/15 10:15:44;;;;;;;2.87;1.80;;;9.90;1.00;;;;;;5074432;28;20214;-62
2023/03/15 10:19:00;;;;;;;9.13;1.27;;;9.20;1.00;;;;;;5072304;28;20832;-62
2023/03/15 10:21:32;;;;;;;2.17;0.80;;;8.70;1.00;;;;;;4995628;28;20714;-62
2023/03/15 10:24:02;;;;;;;5.07;1.27;;;8.70;99.90;;;;;;5072100;28;20203;-61
2023/03/15 10:26:34;;;;;;;5.63;1.17;;;8.70;1.00;;;;;;5070735;28;20250;-61
2023/03/15 10:29:07;;;;;;;11.37;1.30;;;8.40;1.00;;;;;;5078262;28;20221;-62
2023/03/15 10:31:38;;;;;;;1.93;0.77;;;8.30;1.00;;;;;;5074037;28;20213;-62
2023/03/15 10:34:11;;;;;;;3.97;0.80;;;8.60;65.90;;;;;;5072504;28;20214;-61
2023/03/15 10:36:45;;;;;;;4.20;1.33;;;9.20;1.00;;;;;;5076034;28;22049;-62
2023/03/15 10:39:12;;;;;;;8.77;1.33;;;9.40;1.00;;;;;;5091676;28;20285;-62
2023/03/15 10:41:41;;;;;;;10.73;1.03;;;9.60;1.00;;;;;;5092619;28;20554;-60
2023/03/15 10:44:26;;;;;;;7.50;1.23;;;9.00;1.00;;;;;;5094339;28;20238;-60
2023/03/15 10:47:08;;;;;;;2.53;1.00;;;8.70;1.00;;;;;;5091434;28;20210;-61
2023/03/15 10:49:53;;;;;;;3.27;1.30;;;9.20;1.00;;;;;;5095867;28;20541;-63
2023/03/15 10:52:38;;;;;;;1.63;0.80;;;9.50;1.00;;;;;;5093331;28;20712;-62
2023/03/15 10:55:33;;;;;;;7.53;1.47;;;8.90;1.00;;;;;;5094819;28;20234;-64
2023/03/15 10:58:13;;;;;;;4.20;1.23;;;8.70;1.00;;;;;;5092332;27;20288;-61
2023/03/15 11:00:49;;;;;;;5.50;0.97;;;8.80;1.00;;;;;;5093878;28;20236;-61
2023/03/15 11:03:22;;;;;;;2.33;0.97;;;9.30;1.00;;;;;;5096123;28;20223;-61
2023/03/15 11:05:54;;;;;;;3.63;0.53;;;10.00;1.00;;;;;;5095467;28;20237;-61
2023/03/15 11:08:35;;;;;;;2.53;0.80;;;10.60;1.00;;;;;;5098876;28;20281;-61
2023/03/15 11:11:03;;;;;;;6.93;1.53;;;11.20;1.00;;;;;;5096365;28;20234;-65
2023/03/15 11:13:35;;;;;;;4.67;1.03;;;11.20;1.00;;;;;;5096145;28;20239;-62
2023/03/15 11:16:13;;;;;;;4.23;0.80;;;11.60;1.00;;;;;;5096186;28;20320;-61
2023/03/15 11:18:56;;;;;;;3.80;1.27;;;11.50;1.00;;;;;;5097882;28;20240;-61
2023/03/15 11:21:33;;;;;;;3.17;1.13;;;11.30;1.00;;;;;;5104587;28;20236;-62
2023/03/15 11:24:03;;;;;;;5.90;0.93;;;11.60;1.00;;;;;;5096692;28;20684;-62
2023/03/15 11:26:36;;;;;;;2.30;0.63;;;11.10;1.00;;;;;;5098186;28;20685;-61
2023/03/15 11:29:05;;;;;;;2.83;0.80;;;10.60;1.00;;;;;;5098067;28;20198;-62
2023/03/15 11:31:34;;;;;;;2.33;0.60;;;10.30;1.00;;;;;;5098238;28;20324;-62
2023/03/15 11:34:12;;;;;;;2.57;1.10;;;10.00;1.00;;;;;;5096379;28;20803;-62
2023/03/15 11:36:44;;;;;;;3.93;0.73;;;10.30;1.00;;;;;;5093718;28;20201;-61
2023/03/15 11:39:18;;;;;;;4.10;0.90;;;11.20;1.00;;;;;;5100013;28;20213;-61
2023/03/15 11:41:52;;;;;;;3.63;1.00;;;11.80;1.00;;;;;;5099805;28;20292;-62
2023/03/15 11:44:34;;;;;;;5.03;1.20;;;12.40;1.00;;;;;;5096688;28;20208;-62
2023/03/15 11:47:21;;;;;;;5.63;1.90;;;12.60;1.00;;;;;;5097271;28;20205;-62
2023/03/15 11:49:50;;;;;;;3.70;1.20;;;13.00;1.00;;;;;;5097656;28;20208;-62
2023/03/15 11:52:21;;;;;;;4.70;0.83;;;12.40;1.00;;;;;;5096671;28;20207;-62
2023/03/15 11:54:50;;;;;;;5.10;1.23;;;12.90;1.00;;;;;;5097806;28;20266;-61
2023/03/15 11:57:36;;;;;;;2.27;0.80;;;12.90;1.00;;;;;;5097897;28;20221;-61
2023/03/15 12:00:34;;;;;;;3.63;0.80;;;12.80;1.00;;;;;;5095115;28;20331;-62
2023/03/15 12:03:21;;;;;;;5.07;1.03;;;11.40;1.00;;;;;;5098154;28;20292;-62
2023/03/15 12:05:59;;;;;;;3.03;1.00;;;11.30;1.00;;;;;;5095641;28;20217;-61
2023/03/15 12:08:35;;;;;;;3.87;1.20;;;12.60;1.00;;;;;;5096743;28;20519;-62
2023/03/15 12:11:21;;;;;;;4.47;0.80;;;13.30;1.00;;;;;;5097348;28;20266;-62
2023/03/15 12:13:57;;;;;;;4.00;0.60;;;13.50;1.00;;;;;;5090705;28;20204;-62
2023/03/15 12:16:36;;;;;;;3.27;0.73;;;12.70;1.00;;;;;;5094131;28;20210;-62
2023/03/15 12:19:19;;;;;;;1.50;0.63;;;13.60;1.00;;;;;;5092475;28;20275;-62
2023/03/15 12:21:56;;;;;;;2.60;0.60;;;13.60;1.00;;;;;;5098179;28;20308;-62
2023/03/15 12:24:27;;;;;;;3.83;1.10;;;13.50;1.00;;;;;;5097745;28;20204;-62
2023/03/15 12:27:03;;;;;;;2.10;0.90;;;11.90;1.00;;;;;;5095529;28;20204;-64
2023/03/15 12:29:33;;;;;;;2.07;0.70;;;12.30;1.00;;;;;;5096977;28;20237;-62
2023/03/15 12:32:03;;;;;;;2.37;1.10;;;12.60;1.00;;;;;;5097351;28;20263;-62
2023/03/15 12:34:30;;;;;;;5.40;1.00;;;12.30;1.00;;;;;;5094786;28;20197;-62
2023/03/15 12:37:11;;;;;;;1.40;0.87;;;11.60;1.00;;;;;;5097133;28;20636;-62
2023/03/15 12:39:39;;;;;;;3.03;0.67;;;11.20;1.00;;;;;;5098296;28;20250;-61
2023/03/15 12:42:32;;;;;;;3.30;0.70;;;11.50;1.00;;;;;;5096337;28;20246;-62
2023/03/15 12:45:17;;;;;;;2.70;1.10;;;10.20;1.00;;;;;;5095446;28;20201;-61
2023/03/15 12:47:52;;;;;;;4.10;0.53;;;10.20;1.00;;;;;;5102550;28;20229;-62
2023/03/15 12:50:44;;;;;;;1.13;0.80;;;10.90;1.00;;;;;;5096023;28;20204;-62
2023/03/15 12:53:38;;;;;;;2.03;0.67;;;11.10;1.00;;;;;;5097153;28;20642;-62
2023/03/15 12:56:17;;;;;;;3.53;0.60;;;11.40;1.00;;;;;;5094559;28;20220;-61
2023/03/15 12:58:53;;;;;;;1.80;1.00;;;11.50;1.00;;;;;;5095695;28;20238;-62
2023/03/15 13:01:24;;;;;;;1.47;0.60;;;11.70;1.00;;;;;;5094046;28;20204;-61
2023/03/15 13:03:56;;;;;;;3.87;0.60;;;12.20;1.00;;;;;;5095817;28;20197;-61
2023/03/15 13:06:35;;;;;;;1.40;0.50;;;12.30;1.00;;;;;;5092562;28;20846;-61
2023/03/15 13:09:05;;;;;;;2.27;0.70;;;12.90;1.00;;;;;;5093157;28;20204;-61
2023/03/15 13:11:37;;;;;;;1.23;0.63;;;12.60;1.00;;;;;;5095193;28;20205;-61
2023/03/15 13:14:10;;;;;;;1.23;0.67;;;13.50;1.00;;;;;;5096828;28;20241;-62
2023/03/15 13:16:47;;;;;;;2.17;0.70;;;11.70;1.00;;;;;;5096059;28;20322;-63
2023/03/15 13:19:29;;;;;;;1.90;0.50;;;11.90;1.00;;;;;;5097010;28;20652;-62